sensor_id;sensor_type;location;lat;lon;timestamp;temperature;humidity
38380;DHT22;38377;47.418;18.882;2022-09-09T00:01:40;16.60;99.90
38380;DHT22;38377;47.418;18.882;2022-09-09T00:09:49;16.60;99.90
38380;DHT22;38377;47.418;18.882;2022-09-09T00:12:31;16.60;99.90
38380;DHT22;38377;47.418;18.882;2022-09-09T00:15:11;16.60;99.90
38380;DHT22;38377;47.418;18.882;2022-09-09T00:17:41;16.60;99.90
38380;DHT22;38377;47.418;18.882;2022-09-09T00:20:35;16.60;99.90
38380;DHT22;38377;47.418;18.882;2022-09-09T00:23:30;16.60;99.90
38380;DHT22;38377;47.418;18.882;2022-09-09T00:28:25;16.60;99.90
38380;DHT22;38377;47.418;18.882;2022-09-09T00:30:52;16.60;99.90
38380;DHT22;38377;47.418;18.882;2022-09-09T00:33:20;16.60;99.90
38380;DHT22;38377;47.418;18.882;2022-09-09T00:35:56;16.60;99.90
38380;DHT22;38377;47.418;18.882;2022-09-09T00:38:45;16.60;99.90
38380;DHT22;38377;47.418;18.882;2022-09-09T00:44:00;16.50;99.90
38380;DHT22;38377;47.418;18.882;2022-09-09T00:46:56;16.40;99.90
38380;DHT22;38377;47.418;18.882;2022-09-09T00:57:52;16.40;99.90
38380;DHT22;38377;47.418;18.882;2022-09-09T01:16:54;16.30;99.90
38380;DHT22;38377;47.418;18.882;2022-09-09T01:28:08;16.20;99.90
38380;DHT22;38377;47.418;18.882;2022-09-09T01:30:38;16.30;99.90
38380;DHT22;38377;47.418;18.882;2022-09-09T01:33:03;16.30;99.90
38380;DHT22;38377;47.418;18.882;2022-09-09T01:38:16;16.20;99.90
38380;DHT22;38377;47.418;18.882;2022-09-09T01:40:43;16.30;99.90
38380;DHT22;38377;47.418;18.882;2022-09-09T01:43:09;16.30;99.90
38380;DHT22;38377;47.418;18.882;2022-09-09T01:45:35;16.30;99.90
38380;DHT22;38377;47.418;18.882;2022-09-09T01:48:02;16.30;99.90
38380;DHT22;38377;47.418;18.882;2022-09-09T01:50:28;16.30;99.90
38380;DHT22;38377;47.418;18.882;2022-09-09T01:52:57;16.30;99.90
38380;DHT22;38377;47.418;18.882;2022-09-09T01:55:39;16.30;99.90
38380;DHT22;38377;47.418;18.882;2022-09-09T01:58:27;16.30;99.90
38380;DHT22;38377;47.418;18.882;2022-09-09T02:03:54;16.30;99.90
38380;DHT22;38377;47.418;18.882;2022-09-09T02:06:38;16.30;99.90
38380;DHT22;38377;47.418;18.882;2022-09-09T02:09:07;16.30;99.90
38380;DHT22;38377;47.418;18.882;2022-09-09T02:11:35;16.30;99.90
38380;DHT22;38377;47.418;18.882;2022-09-09T02:14:27;16.30;99.90
38380;DHT22;38377;47.418;18.882;2022-09-09T02:17:11;16.30;99.90
38380;DHT22;38377;47.418;18.882;2022-09-09T02:19:51;16.30;99.90
38380;DHT22;38377;47.418;18.882;2022-09-09T02:22:22;16.20;99.90
38380;DHT22;38377;47.418;18.882;2022-09-09T02:24:49;16.20;99.90
38380;DHT22;38377;47.418;18.882;2022-09-09T02:27:18;16.20;99.90
38380;DHT22;38377;47.418;18.882;2022-09-09T02:29:45;16.20;99.90
38380;DHT22;38377;47.418;18.882;2022-09-09T02:32:15;16.20;99.90
38380;DHT22;38377;47.418;18.882;2022-09-09T02:35:09;16.20;99.90
38380;DHT22;38377;47.418;18.882;2022-09-09T02:37:38;16.20;99.90
38380;DHT22;38377;47.418;18.882;2022-09-09T02:40:06;16.20;99.90
38380;DHT22;38377;47.418;18.882;2022-09-09T02:42:46;16.20;99.90
38380;DHT22;38377;47.418;18.882;2022-09-09T02:45:15;16.20;99.90
38380;DHT22;38377;47.418;18.882;2022-09-09T02:51:07;16.20;99.90
38380;DHT22;38377;47.418;18.882;2022-09-09T02:53:43;16.20;99.90
38380;DHT22;38377;47.418;18.882;2022-09-09T02:56:16;16.20;99.90
38380;DHT22;38377;47.418;18.882;2022-09-09T02:58:44;16.20;99.90
38380;DHT22;38377;47.418;18.882;2022-09-09T03:01:10;16.20;99.90
38380;DHT22;38377;47.418;18.882;2022-09-09T03:03:35;16.20;99.90
38380;DHT22;38377;47.418;18.882;2022-09-09T03:06:01;16.20;99.90
38380;DHT22;38377;47.418;18.882;2022-09-09T03:08:27;16.20;99.90
38380;DHT22;38377;47.418;18.882;2022-09-09T03:10:54;16.30;99.90
38380;DHT22;38377;47.418;18.882;2022-09-09T03:13:20;16.30;99.90
38380;DHT22;38377;47.418;18.882;2022-09-09T03:15:47;16.20;99.90
38380;DHT22;38377;47.418;18.882;2022-09-09T03:18:14;16.20;99.90
38380;DHT22;38377;47.418;18.882;2022-09-09T03:20:40;16.20;99.90
38380;DHT22;38377;47.418;18.882;2022-09-09T03:23:07;16.20;99.90
38380;DHT22;38377;47.418;18.882;2022-09-09T03:25:33;16.20;99.90
38380;DHT22;38377;47.418;18.882;2022-09-09T03:27:59;16.20;99.90
38380;DHT22;38377;47.418;18.882;2022-09-09T03:30:27;16.20;99.90
38380;DHT22;38377;47.418;18.882;2022-09-09T03:32:53;16.10;99.90
38380;DHT22;38377;47.418;18.882;2022-09-09T03:35:20;16.10;99.90
38380;DHT22;38377;47.418;18.882;2022-09-09T03:37:46;16.10;99.90
38380;DHT22;38377;47.418;18.882;2022-09-09T03:40:12;16.10;99.90
38380;DHT22;38377;47.418;18.882;2022-09-09T03:42:39;16.10;99.90
38380;DHT22;38377;47.418;18.882;2022-09-09T03:45:07;16.10;99.90
38380;DHT22;38377;47.418;18.882;2022-09-09T03:47:34;16.10;99.90
38380;DHT22;38377;47.418;18.882;2022-09-09T03:50:00;16.10;99.90
38380;DHT22;38377;47.418;18.882;2022-09-09T03:52:26;16.00;99.90
38380;DHT22;38377;47.418;18.882;2022-09-09T03:54:53;16.10;99.90
38380;DHT22;38377;47.418;18.882;2022-09-09T03:57:19;16.00;99.90
38380;DHT22;38377;47.418;18.882;2022-09-09T03:59:45;16.00;99.90
38380;DHT22;38377;47.418;18.882;2022-09-09T04:02:11;16.00;99.90
38380;DHT22;38377;47.418;18.882;2022-09-09T04:04:36;16.00;99.90
38380;DHT22;38377;47.418;18.882;2022-09-09T04:07:02;16.00;99.90
38380;DHT22;38377;47.418;18.882;2022-09-09T04:09:28;16.00;99.90
38380;DHT22;38377;47.418;18.882;2022-09-09T04:11:54;16.00;99.90
38380;DHT22;38377;47.418;18.882;2022-09-09T04:14:20;16.00;99.90
38380;DHT22;38377;47.418;18.882;2022-09-09T04:16:46;16.00;99.90
38380;DHT22;38377;47.418;18.882;2022-09-09T04:19:13;16.00;99.90
38380;DHT22;38377;47.418;18.882;2022-09-09T04:21:40;16.00;99.90
38380;DHT22;38377;47.418;18.882;2022-09-09T04:24:07;16.00;99.90
38380;DHT22;38377;47.418;18.882;2022-09-09T04:26:33;16.00;99.90
38380;DHT22;38377;47.418;18.882;2022-09-09T04:28:59;16.00;99.90
38380;DHT22;38377;47.418;18.882;2022-09-09T04:31:24;16.00;99.90
38380;DHT22;38377;47.418;18.882;2022-09-09T04:33:51;16.00;99.90
38380;DHT22;38377;47.418;18.882;2022-09-09T04:36:18;16.00;99.90
38380;DHT22;38377;47.418;18.882;2022-09-09T04:38:45;16.00;99.90
38380;DHT22;38377;47.418;18.882;2022-09-09T04:41:11;15.90;99.90
38380;DHT22;38377;47.418;18.882;2022-09-09T04:43:38;16.00;99.90
38380;DHT22;38377;47.418;18.882;2022-09-09T04:46:04;15.90;99.90
38380;DHT22;38377;47.418;18.882;2022-09-09T04:48:30;15.90;99.90
38380;DHT22;38377;47.418;18.882;2022-09-09T04:51:05;15.90;99.90
38380;DHT22;38377;47.418;18.882;2022-09-09T04:53:31;15.90;99.90
38380;DHT22;38377;47.418;18.882;2022-09-09T04:56:05;15.90;99.90
38380;DHT22;38377;47.418;18.882;2022-09-09T04:58:31;15.90;99.90
38380;DHT22;38377;47.418;18.882;2022-09-09T05:01:23;15.90;99.90
38380;DHT22;38377;47.418;18.882;2022-09-09T05:03:50;15.90;99.90
38380;DHT22;38377;47.418;18.882;2022-09-09T05:06:18;15.90;99.90
38380;DHT22;38377;47.418;18.882;2022-09-09T05:08:44;15.90;99.90
38380;DHT22;38377;47.418;18.882;2022-09-09T05:11:30;16.00;99.90
38380;DHT22;38377;47.418;18.882;2022-09-09T05:13:57;16.00;99.90
38380;DHT22;38377;47.418;18.882;2022-09-09T05:16:23;16.00;99.90
38380;DHT22;38377;47.418;18.882;2022-09-09T05:18:49;16.00;99.90
38380;DHT22;38377;47.418;18.882;2022-09-09T05:21:17;16.00;99.90
38380;DHT22;38377;47.418;18.882;2022-09-09T05:23:45;16.00;99.90
38380;DHT22;38377;47.418;18.882;2022-09-09T05:26:16;16.00;99.90
38380;DHT22;38377;47.418;18.882;2022-09-09T05:28:42;16.00;99.90
38380;DHT22;38377;47.418;18.882;2022-09-09T05:31:10;16.00;99.90
38380;DHT22;38377;47.418;18.882;2022-09-09T05:33:38;16.00;99.90
38380;DHT22;38377;47.418;18.882;2022-09-09T05:36:10;16.10;99.90
38380;DHT22;38377;47.418;18.882;2022-09-09T05:38:39;16.10;99.90
38380;DHT22;38377;47.418;18.882;2022-09-09T05:41:06;16.10;99.90
38380;DHT22;38377;47.418;18.882;2022-09-09T05:43:33;16.20;99.90
38380;DHT22;38377;47.418;18.882;2022-09-09T05:46:12;16.10;99.90
38380;DHT22;38377;47.418;18.882;2022-09-09T05:48:45;16.10;99.90
38380;DHT22;38377;47.418;18.882;2022-09-09T05:51:20;16.20;99.90
38380;DHT22;38377;47.418;18.882;2022-09-09T05:53:47;16.20;99.90
38380;DHT22;38377;47.418;18.882;2022-09-09T05:56:21;16.20;99.90
38380;DHT22;38377;47.418;18.882;2022-09-09T05:58:49;16.30;99.90
38380;DHT22;38377;47.418;18.882;2022-09-09T06:01:17;16.30;99.90
38380;DHT22;38377;47.418;18.882;2022-09-09T06:03:45;16.40;99.90
38380;DHT22;38377;47.418;18.882;2022-09-09T06:06:16;16.40;99.90
38380;DHT22;38377;47.418;18.882;2022-09-09T06:08:43;16.50;99.90
38380;DHT22;38377;47.418;18.882;2022-09-09T06:11:12;16.60;99.90
38380;DHT22;38377;47.418;18.882;2022-09-09T06:13:38;16.70;99.90
38380;DHT22;38377;47.418;18.882;2022-09-09T06:16:07;16.70;99.90
38380;DHT22;38377;47.418;18.882;2022-09-09T06:18:33;16.80;99.90
38380;DHT22;38377;47.418;18.882;2022-09-09T06:21:01;16.90;99.90
38380;DHT22;38377;47.418;18.882;2022-09-09T06:23:27;17.00;99.90
38380;DHT22;38377;47.418;18.882;2022-09-09T06:26:09;17.10;99.90
38380;DHT22;38377;47.418;18.882;2022-09-09T06:28:35;17.30;99.90
38380;DHT22;38377;47.418;18.882;2022-09-09T06:31:03;17.40;99.90
38380;DHT22;38377;47.418;18.882;2022-09-09T06:33:34;17.40;99.90
38380;DHT22;38377;47.418;18.882;2022-09-09T06:36:01;17.50;99.90
38380;DHT22;38377;47.418;18.882;2022-09-09T06:38:27;17.60;99.90
38380;DHT22;38377;47.418;18.882;2022-09-09T06:40:57;17.60;99.90
38380;DHT22;38377;47.418;18.882;2022-09-09T06:43:24;17.60;99.90
38380;DHT22;38377;47.418;18.882;2022-09-09T06:46:10;17.70;99.90
38380;DHT22;38377;47.418;18.882;2022-09-09T06:48:38;17.80;99.90
38380;DHT22;38377;47.418;18.882;2022-09-09T06:53:32;17.70;99.90
38380;DHT22;38377;47.418;18.882;2022-09-09T06:56:17;17.80;99.90
38380;DHT22;38377;47.418;18.882;2022-09-09T06:58:43;17.90;99.90
38380;DHT22;38377;47.418;18.882;2022-09-09T07:01:16;17.80;99.90
38380;DHT22;38377;47.418;18.882;2022-09-09T07:03:45;17.80;99.90
38380;DHT22;38377;47.418;18.882;2022-09-09T07:06:15;17.70;99.90
38380;DHT22;38377;47.418;18.882;2022-09-09T07:08:51;17.50;99.90
38380;DHT22;38377;47.418;18.882;2022-09-09T07:11:18;17.50;99.90
38380;DHT22;38377;47.418;18.882;2022-09-09T07:13:44;17.80;99.90
38380;DHT22;38377;47.418;18.882;2022-09-09T07:16:12;18.00;99.90
38380;DHT22;38377;47.418;18.882;2022-09-09T07:18:39;18.30;99.90
38380;DHT22;38377;47.418;18.882;2022-09-09T07:21:06;18.40;99.90
38380;DHT22;38377;47.418;18.882;2022-09-09T07:23:32;18.40;99.90
38380;DHT22;38377;47.418;18.882;2022-09-09T07:25:58;18.40;99.90
38380;DHT22;38377;47.418;18.882;2022-09-09T07:28:25;18.50;99.90
38380;DHT22;38377;47.418;18.882;2022-09-09T07:31:00;18.80;99.90
38380;DHT22;38377;47.418;18.882;2022-09-09T07:33:30;19.00;99.90
38380;DHT22;38377;47.418;18.882;2022-09-09T07:39:09;19.40;99.90
38380;DHT22;38377;47.418;18.882;2022-09-09T07:41:43;19.60;99.90
38380;DHT22;38377;47.418;18.882;2022-09-09T07:44:15;19.50;99.90
38380;DHT22;38377;47.418;18.882;2022-09-09T07:46:41;19.60;99.90
38380;DHT22;38377;47.418;18.882;2022-09-09T07:49:07;19.60;99.90
38380;DHT22;38377;47.418;18.882;2022-09-09T07:51:43;19.80;99.90
38380;DHT22;38377;47.418;18.882;2022-09-09T07:54:12;20.10;99.90
38380;DHT22;38377;47.418;18.882;2022-09-09T07:56:39;20.30;99.90
38380;DHT22;38377;47.418;18.882;2022-09-09T07:59:06;20.40;99.90
38380;DHT22;38377;47.418;18.882;2022-09-09T08:04:04;20.60;99.90
38380;DHT22;38377;47.418;18.882;2022-09-09T08:06:38;20.70;99.90
38380;DHT22;38377;47.418;18.882;2022-09-09T08:09:05;20.60;99.90
38380;DHT22;38377;47.418;18.882;2022-09-09T08:11:32;20.70;99.90
38380;DHT22;38377;47.418;18.882;2022-09-09T08:13:59;21.00;99.90
38380;DHT22;38377;47.418;18.882;2022-09-09T08:16:27;21.10;99.90
38380;DHT22;38377;47.418;18.882;2022-09-09T08:18:53;21.30;99.90
38380;DHT22;38377;47.418;18.882;2022-09-09T08:21:24;21.40;99.90
38380;DHT22;38377;47.418;18.882;2022-09-09T08:23:51;21.60;99.90
38380;DHT22;38377;47.418;18.882;2022-09-09T08:26:32;21.60;99.90
38380;DHT22;38377;47.418;18.882;2022-09-09T08:29:00;21.70;99.90
38380;DHT22;38377;47.418;18.882;2022-09-09T08:31:27;22.00;99.90
38380;DHT22;38377;47.418;18.882;2022-09-09T08:33:54;22.00;99.90
38380;DHT22;38377;47.418;18.882;2022-09-09T08:36:23;22.10;99.90
38380;DHT22;38377;47.418;18.882;2022-09-09T08:38:51;22.10;99.90
38380;DHT22;38377;47.418;18.882;2022-09-09T08:52:48;22.60;99.90
38380;DHT22;38377;47.418;18.882;2022-09-09T08:57:40;23.10;99.90
38380;DHT22;38377;47.418;18.882;2022-09-09T09:00:10;23.30;99.90
38380;DHT22;38377;47.418;18.882;2022-09-09T09:11:21;23.60;99.90
38380;DHT22;38377;47.418;18.882;2022-09-09T09:14:01;23.70;99.90
38380;DHT22;38377;47.418;18.882;2022-09-09T09:16:41;23.70;99.90
38380;DHT22;38377;47.418;18.882;2022-09-09T09:19:13;23.80;99.90
38380;DHT22;38377;47.418;18.882;2022-09-09T09:21:45;23.90;99.90
38380;DHT22;38377;47.418;18.882;2022-09-09T09:24:20;23.80;99.90
38380;DHT22;38377;47.418;18.882;2022-09-09T09:26:46;23.90;99.90
38380;DHT22;38377;47.418;18.882;2022-09-09T09:29:16;23.90;99.90
38380;DHT22;38377;47.418;18.882;2022-09-09T09:31:55;24.00;99.90
38380;DHT22;38377;47.418;18.882;2022-09-09T09:34:23;23.90;99.90
38380;DHT22;38377;47.418;18.882;2022-09-09T09:36:57;23.90;99.90
38380;DHT22;38377;47.418;18.882;2022-09-09T09:39:31;23.80;99.90
38380;DHT22;38377;47.418;18.882;2022-09-09T09:42:10;24.10;99.90
38380;DHT22;38377;47.418;18.882;2022-09-09T09:44:39;24.20;99.10
38380;DHT22;38377;47.418;18.882;2022-09-09T09:49:38;24.00;97.80
38380;DHT22;38377;47.418;18.882;2022-09-09T09:52:06;24.10;97.70
38380;DHT22;38377;47.418;18.882;2022-09-09T09:54:39;24.30;97.30
38380;DHT22;38377;47.418;18.882;2022-09-09T09:57:16;24.50;96.00
38380;DHT22;38377;47.418;18.882;2022-09-09T09:59:42;24.60;96.70
38380;DHT22;38377;47.418;18.882;2022-09-09T10:02:21;24.90;98.60
38380;DHT22;38377;47.418;18.882;2022-09-09T10:05:05;24.90;96.60
38380;DHT22;38377;47.418;18.882;2022-09-09T10:07:31;24.90;94.70
38380;DHT22;38377;47.418;18.882;2022-09-09T10:09:58;24.80;94.00
38380;DHT22;38377;47.418;18.882;2022-09-09T10:12:59;24.80;94.90
38380;DHT22;38377;47.418;18.882;2022-09-09T10:20:54;24.70;91.70
38380;DHT22;38377;47.418;18.882;2022-09-09T10:39:48;25.20;75.80
38380;DHT22;38377;47.418;18.882;2022-09-09T10:42:17;25.20;76.70
38380;DHT22;38377;47.418;18.882;2022-09-09T10:50:12;25.20;73.00
38380;DHT22;38377;47.418;18.882;2022-09-09T10:55:16;25.10;76.60
38380;DHT22;38377;47.418;18.882;2022-09-09T10:57:47;25.30;74.10
38380;DHT22;38377;47.418;18.882;2022-09-09T11:00:15;25.50;70.00
38380;DHT22;38377;47.418;18.882;2022-09-09T11:02:42;25.80;72.00
38380;DHT22;38377;47.418;18.882;2022-09-09T11:08:12;25.60;71.80
38380;DHT22;38377;47.418;18.882;2022-09-09T11:13:44;25.30;71.80
38380;DHT22;38377;47.418;18.882;2022-09-09T11:16:23;25.30;71.50
38380;DHT22;38377;47.418;18.882;2022-09-09T11:19:02;25.60;73.70
38380;DHT22;38377;47.418;18.882;2022-09-09T11:21:37;25.40;70.40
38380;DHT22;38377;47.418;18.882;2022-09-09T11:24:12;24.90;71.20
38380;DHT22;38377;47.418;18.882;2022-09-09T11:26:44;24.50;70.40
38380;DHT22;38377;47.418;18.882;2022-09-09T11:35:24;24.30;76.40
38380;DHT22;38377;47.418;18.882;2022-09-09T11:38:13;24.30;77.60
38380;DHT22;38377;47.418;18.882;2022-09-09T11:40:41;24.30;74.90
38380;DHT22;38377;47.418;18.882;2022-09-09T11:43:13;24.30;76.20
38380;DHT22;38377;47.418;18.882;2022-09-09T11:45:43;24.40;74.00
38380;DHT22;38377;47.418;18.882;2022-09-09T11:48:40;24.30;75.90
38380;DHT22;38377;47.418;18.882;2022-09-09T11:51:13;24.30;76.70
38380;DHT22;38377;47.418;18.882;2022-09-09T12:01:39;24.80;78.40
38380;DHT22;38377;47.418;18.882;2022-09-09T12:04:13;25.30;76.20
38380;DHT22;38377;47.418;18.882;2022-09-09T12:06:52;25.50;76.70
38380;DHT22;38377;47.418;18.882;2022-09-09T12:19:40;25.90;73.80
38380;DHT22;38377;47.418;18.882;2022-09-09T12:22:08;25.80;74.50
38380;DHT22;38377;47.418;18.882;2022-09-09T12:27:24;25.50;77.70
38380;DHT22;38377;47.418;18.882;2022-09-09T12:30:15;25.40;73.90
38380;DHT22;38377;47.418;18.882;2022-09-09T12:32:41;25.40;75.20
38380;DHT22;38377;47.418;18.882;2022-09-09T12:35:11;25.30;76.20
38380;DHT22;38377;47.418;18.882;2022-09-09T12:40:41;25.20;74.50
38380;DHT22;38377;47.418;18.882;2022-09-09T12:43:21;24.90;75.10
38380;DHT22;38377;47.418;18.882;2022-09-09T12:45:48;24.60;76.40
38380;DHT22;38377;47.418;18.882;2022-09-09T12:48:22;24.60;75.90
38380;DHT22;38377;47.418;18.882;2022-09-09T12:50:51;24.50;75.90
38380;DHT22;38377;47.418;18.882;2022-09-09T12:56:17;24.70;77.00
38380;DHT22;38377;47.418;18.882;2022-09-09T12:58:47;24.70;72.90
38380;DHT22;38377;47.418;18.882;2022-09-09T13:01:27;24.70;73.90
38380;DHT22;38377;47.418;18.882;2022-09-09T13:03:54;24.70;75.10
38380;DHT22;38377;47.418;18.882;2022-09-09T13:06:28;24.80;77.40
38380;DHT22;38377;47.418;18.882;2022-09-09T13:08:55;24.80;76.10
38380;DHT22;38377;47.418;18.882;2022-09-09T13:11:28;24.80;78.00
38380;DHT22;38377;47.418;18.882;2022-09-09T13:13:56;24.70;76.50
38380;DHT22;38377;47.418;18.882;2022-09-09T13:16:26;24.90;75.60
38380;DHT22;38377;47.418;18.882;2022-09-09T13:18:55;24.90;73.30
38380;DHT22;38377;47.418;18.882;2022-09-09T13:21:34;24.90;73.10
38380;DHT22;38377;47.418;18.882;2022-09-09T13:24:00;24.70;73.80
38380;DHT22;38377;47.418;18.882;2022-09-09T13:26:31;24.60;74.80
38380;DHT22;38377;47.418;18.882;2022-09-09T13:29:17;24.60;73.30
38380;DHT22;38377;47.418;18.882;2022-09-09T13:31:46;24.50;73.30
38380;DHT22;38377;47.418;18.882;2022-09-09T13:34:33;24.50;73.80
38380;DHT22;38377;47.418;18.882;2022-09-09T13:37:17;24.50;73.60
38380;DHT22;38377;47.418;18.882;2022-09-09T13:39:51;24.40;72.20
38380;DHT22;38377;47.418;18.882;2022-09-09T13:42:27;24.40;74.40
38380;DHT22;38377;47.418;18.882;2022-09-09T13:44:53;24.50;71.80
38380;DHT22;38377;47.418;18.882;2022-09-09T13:47:35;24.60;71.10
38380;DHT22;38377;47.418;18.882;2022-09-09T13:52:47;25.20;70.60
38380;DHT22;38377;47.418;18.882;2022-09-09T13:55:14;25.30;71.70
38380;DHT22;38377;47.418;18.882;2022-09-09T13:57:56;25.50;72.70
38380;DHT22;38377;47.418;18.882;2022-09-09T14:00:23;25.50;72.80
38380;DHT22;38377;47.418;18.882;2022-09-09T14:02:49;25.10;74.30
38380;DHT22;38377;47.418;18.882;2022-09-09T14:05:16;24.80;76.30
38380;DHT22;38377;47.418;18.882;2022-09-09T14:07:42;24.50;75.00
38380;DHT22;38377;47.418;18.882;2022-09-09T14:10:09;24.30;75.70
38380;DHT22;38377;47.418;18.882;2022-09-09T14:12:35;24.20;75.90
38380;DHT22;38377;47.418;18.882;2022-09-09T14:15:03;24.10;77.20
38380;DHT22;38377;47.418;18.882;2022-09-09T14:17:29;24.20;76.70
38380;DHT22;38377;47.418;18.882;2022-09-09T14:19:55;24.10;76.20
38380;DHT22;38377;47.418;18.882;2022-09-09T14:22:21;24.10;75.70
38380;DHT22;38377;47.418;18.882;2022-09-09T14:24:48;24.00;76.10
38380;DHT22;38377;47.418;18.882;2022-09-09T14:27:15;24.00;76.90
38380;DHT22;38377;47.418;18.882;2022-09-09T14:29:41;24.10;77.70
38380;DHT22;38377;47.418;18.882;2022-09-09T14:32:07;24.30;76.70
38380;DHT22;38377;47.418;18.882;2022-09-09T14:34:33;24.50;75.30
38380;DHT22;38377;47.418;18.882;2022-09-09T14:36:59;24.50;75.50
38380;DHT22;38377;47.418;18.882;2022-09-09T14:39:24;24.50;74.60
38380;DHT22;38377;47.418;18.882;2022-09-09T14:41:50;24.40;73.30
38380;DHT22;38377;47.418;18.882;2022-09-09T14:44:16;24.30;74.60
38380;DHT22;38377;47.418;18.882;2022-09-09T14:46:41;24.20;75.80
38380;DHT22;38377;47.418;18.882;2022-09-09T14:49:08;24.20;77.40
38380;DHT22;38377;47.418;18.882;2022-09-09T14:51:36;24.20;78.70
38380;DHT22;38377;47.418;18.882;2022-09-09T14:54:02;24.10;77.00
38380;DHT22;38377;47.418;18.882;2022-09-09T14:56:30;24.10;75.30
38380;DHT22;38377;47.418;18.882;2022-09-09T14:58:57;24.20;75.30
38380;DHT22;38377;47.418;18.882;2022-09-09T15:01:25;24.10;78.50
38380;DHT22;38377;47.418;18.882;2022-09-09T15:04:05;24.00;76.90
38380;DHT22;38377;47.418;18.882;2022-09-09T15:06:34;24.00;79.20
38380;DHT22;38377;47.418;18.882;2022-09-09T15:09:02;24.00;76.30
38380;DHT22;38377;47.418;18.882;2022-09-09T15:11:29;24.00;78.00
38380;DHT22;38377;47.418;18.882;2022-09-09T15:13:56;24.10;77.90
38380;DHT22;38377;47.418;18.882;2022-09-09T15:16:27;24.10;77.20
38380;DHT22;38377;47.418;18.882;2022-09-09T15:18:57;24.10;77.30
38380;DHT22;38377;47.418;18.882;2022-09-09T15:21:25;24.20;77.60
38380;DHT22;38377;47.418;18.882;2022-09-09T15:23:51;24.30;77.20
38380;DHT22;38377;47.418;18.882;2022-09-09T15:26:18;24.40;76.00
38380;DHT22;38377;47.418;18.882;2022-09-09T15:28:45;24.40;76.70
38380;DHT22;38377;47.418;18.882;2022-09-09T15:31:20;24.40;77.10
38380;DHT22;38377;47.418;18.882;2022-09-09T15:33:57;24.30;81.10
38380;DHT22;38377;47.418;18.882;2022-09-09T15:36:33;24.10;75.60
38380;DHT22;38377;47.418;18.882;2022-09-09T15:39:00;23.90;77.70
38380;DHT22;38377;47.418;18.882;2022-09-09T15:41:27;23.60;79.60
38380;DHT22;38377;47.418;18.882;2022-09-09T15:43:55;23.50;79.40
38380;DHT22;38377;47.418;18.882;2022-09-09T15:48:57;23.40;81.90
38380;DHT22;38377;47.418;18.882;2022-09-09T15:51:24;23.40;79.00
38380;DHT22;38377;47.418;18.882;2022-09-09T15:53:55;23.40;81.30
38380;DHT22;38377;47.418;18.882;2022-09-09T15:56:21;23.30;83.10
38380;DHT22;38377;47.418;18.882;2022-09-09T15:58:47;23.20;82.60
38380;DHT22;38377;47.418;18.882;2022-09-09T16:01:13;23.10;84.50
38380;DHT22;38377;47.418;18.882;2022-09-09T16:03:40;23.10;84.50
38380;DHT22;38377;47.418;18.882;2022-09-09T16:06:08;23.00;85.80
38380;DHT22;38377;47.418;18.882;2022-09-09T16:08:37;22.90;85.10
38380;DHT22;38377;47.418;18.882;2022-09-09T16:11:07;22.90;86.60
38380;DHT22;38377;47.418;18.882;2022-09-09T16:13:38;22.80;86.40
38380;DHT22;38377;47.418;18.882;2022-09-09T16:16:08;22.80;89.60
38380;DHT22;38377;47.418;18.882;2022-09-09T16:18:39;22.70;88.40
38380;DHT22;38377;47.418;18.882;2022-09-09T16:21:05;22.70;82.30
38380;DHT22;38377;47.418;18.882;2022-09-09T16:23:34;22.70;84.60
38380;DHT22;38377;47.418;18.882;2022-09-09T16:26:01;22.60;86.50
38380;DHT22;38377;47.418;18.882;2022-09-09T16:28:27;22.60;87.80
38380;DHT22;38377;47.418;18.882;2022-09-09T16:30:53;22.40;86.70
38380;DHT22;38377;47.418;18.882;2022-09-09T16:33:19;22.30;86.90
38380;DHT22;38377;47.418;18.882;2022-09-09T16:35:45;22.10;87.80
38380;DHT22;38377;47.418;18.882;2022-09-09T16:38:11;21.90;88.50
38380;DHT22;38377;47.418;18.882;2022-09-09T16:40:38;21.70;89.40
38380;DHT22;38377;47.418;18.882;2022-09-09T16:43:04;21.50;90.00
38380;DHT22;38377;47.418;18.882;2022-09-09T16:45:31;21.40;90.50
38380;DHT22;38377;47.418;18.882;2022-09-09T16:47:58;21.30;91.20
38380;DHT22;38377;47.418;18.882;2022-09-09T16:50:24;21.10;91.30
38380;DHT22;38377;47.418;18.882;2022-09-09T16:52:52;21.00;91.90
38380;DHT22;38377;47.418;18.882;2022-09-09T16:55:18;21.00;92.20
38380;DHT22;38377;47.418;18.882;2022-09-09T16:57:46;20.90;92.30
38380;DHT22;38377;47.418;18.882;2022-09-09T17:00:14;20.80;92.80
38380;DHT22;38377;47.418;18.882;2022-09-09T17:02:42;20.70;94.40
38380;DHT22;38377;47.418;18.882;2022-09-09T17:05:08;20.50;94.70
38380;DHT22;38377;47.418;18.882;2022-09-09T17:07:35;20.40;95.80
38380;DHT22;38377;47.418;18.882;2022-09-09T17:10:01;20.20;96.90
38380;DHT22;38377;47.418;18.882;2022-09-09T17:12:27;20.20;96.50
38380;DHT22;38377;47.418;18.882;2022-09-09T17:14:53;20.10;95.60
38380;DHT22;38377;47.418;18.882;2022-09-09T17:17:20;20.00;95.80
38380;DHT22;38377;47.418;18.882;2022-09-09T17:19:46;19.90;97.10
38380;DHT22;38377;47.418;18.882;2022-09-09T17:22:12;19.80;98.30
38380;DHT22;38377;47.418;18.882;2022-09-09T17:24:38;19.60;98.50
38380;DHT22;38377;47.418;18.882;2022-09-09T17:27:06;19.40;99.20
38380;DHT22;38377;47.418;18.882;2022-09-09T17:29:31;19.30;99.50
38380;DHT22;38377;47.418;18.882;2022-09-09T17:31:57;19.20;99.80
38380;DHT22;38377;47.418;18.882;2022-09-09T17:34:23;19.10;99.90
38380;DHT22;38377;47.418;18.882;2022-09-09T17:36:50;19.00;99.90
38380;DHT22;38377;47.418;18.882;2022-09-09T17:39:16;18.90;99.90
38380;DHT22;38377;47.418;18.882;2022-09-09T17:41:41;18.80;99.90
38380;DHT22;38377;47.418;18.882;2022-09-09T17:44:07;18.70;99.90
38380;DHT22;38377;47.418;18.882;2022-09-09T17:46:36;18.70;99.90
38380;DHT22;38377;47.418;18.882;2022-09-09T17:49:05;18.70;99.90
38380;DHT22;38377;47.418;18.882;2022-09-09T17:51:33;18.70;99.90
38380;DHT22;38377;47.418;18.882;2022-09-09T17:54:10;18.70;99.90
38380;DHT22;38377;47.418;18.882;2022-09-09T17:56:38;18.70;99.90
38380;DHT22;38377;47.418;18.882;2022-09-09T17:59:06;18.70;99.90
38380;DHT22;38377;47.418;18.882;2022-09-09T18:01:34;18.70;99.90
38380;DHT22;38377;47.418;18.882;2022-09-09T18:04:02;18.70;99.90
38380;DHT22;38377;47.418;18.882;2022-09-09T18:06:32;18.80;99.90
38380;DHT22;38377;47.418;18.882;2022-09-09T18:09:01;18.80;99.90
38380;DHT22;38377;47.418;18.882;2022-09-09T18:11:30;18.80;99.90
38380;DHT22;38377;47.418;18.882;2022-09-09T18:13:58;18.80;99.90